Time;durP1;ratioP1;P1;durP2;ratioP2;P2;SDS_P1;SDS_P2;PMS_P1;PMS_P2;Temp;Humidity;BMP_temperature;BMP_pressure;BME280_temperature;BME280_humidity;BME280_pressure;Samples;Min_cycle;Max_cycle;Signal;HPM_P1;HPM_P2
2022/04/13 00:00:50;;;;;;;1.17;1.17;;;7.50;99.90;;;;;;5190985;28;20235;-73
2022/04/13 00:03:27;;;;;;;1.00;1.00;;;7.30;99.90;;;;;;5183804;28;20041;-74
2022/04/13 00:06:04;;;;;;;3.60;3.30;;;7.20;99.90;;;;;;5205244;28;20263;-74
2022/04/13 00:08:35;;;;;;;1.10;1.10;;;7.10;99.90;;;;;;5220842;28;20391;-73
2022/04/13 00:11:10;;;;;;;1.10;1.10;;;7.00;99.90;;;;;;5221841;28;20475;-73
2022/04/13 00:13:46;;;;;;;1.75;1.65;;;6.90;99.90;;;;;;5219327;28;20167;-73
2022/04/13 00:16:18;;;;;;;1.40;1.40;;;6.90;99.90;;;;;;5202971;28;20368;-73
2022/04/13 00:18:50;;;;;;;1.42;1.42;;;6.80;99.90;;;;;;5209905;28;20037;-72
2022/04/13 00:21:22;;;;;;;2.28;1.83;;;6.70;99.90;;;;;;5197538;28;20037;-72
2022/04/13 00:23:59;;;;;;;0.80;0.80;;;6.60;99.90;;;;;;5201712;28;20308;-74
2022/04/13 00:26:39;;;;;;;1.88;1.77;;;6.60;99.90;;;;;;5201032;28;20033;-73
2022/04/13 00:29:13;;;;;;;0.82;0.82;;;6.50;99.90;;;;;;5167538;28;20120;-73
2022/04/13 00:31:47;;;;;;;1.13;1.13;;;6.40;99.90;;;;;;5200231;28;20033;-73
2022/04/13 00:34:18;;;;;;;1.10;1.10;;;6.30;99.90;;;;;;5200749;28;20438;-73
2022/04/13 00:36:56;;;;;;;1.00;1.00;;;6.20;99.90;;;;;;5200634;28;20053;-74
2022/04/13 00:39:30;;;;;;;2.28;2.17;;;6.20;99.90;;;;;;5183775;28;20025;-73
2022/04/13 00:42:05;;;;;;;;;;;6.20;99.90;;;;;;5199934;28;20047;-74
2022/04/13 00:44:39;;;;;;;0.93;0.93;;;6.20;99.90;;;;;;5189122;28;20126;-73
2022/04/13 00:47:16;;;;;;;2.15;2.05;;;6.10;99.90;;;;;;5212744;28;20033;-74
2022/04/13 00:49:50;;;;;;;1.25;1.23;;;6.10;99.90;;;;;;5183802;28;20479;-74
2022/04/13 00:52:26;;;;;;;0.88;0.88;;;6.00;99.90;;;;;;5215923;28;20035;-73
2022/04/13 00:54:59;;;;;;;0.70;0.70;;;5.90;99.90;;;;;;5203471;28;20036;-74
2022/04/13 00:57:33;;;;;;;2.10;2.00;;;5.90;99.90;;;;;;5182831;28;20040;-73
2022/04/13 01:00:07;;;;;;;0.95;0.95;;;5.90;99.90;;;;;;5183900;28;20029;-74
2022/04/13 01:02:42;;;;;;;1.58;1.48;;;5.90;99.90;;;;;;5199546;28;20033;-73
2022/04/13 01:05:19;;;;;;;0.85;0.85;;;5.80;99.90;;;;;;5197923;28;20041;-74
2022/04/13 01:08:02;;;;;;;0.73;0.73;;;5.70;99.90;;;;;;5198093;28;20123;-74
2022/04/13 01:10:38;;;;;;;1.60;1.60;;;5.70;99.90;;;;;;5200617;28;20021;-73
2022/04/13 01:13:16;;;;;;;1.02;1.02;;;5.80;99.90;;;;;;5199590;28;20071;-73
2022/04/13 01:15:50;;;;;;;0.93;0.93;;;5.70;99.90;;;;;;5181916;28;20230;-73
2022/04/13 01:18:23;;;;;;;2.60;2.42;;;5.70;99.90;;;;;;5184916;28;20029;-73
2022/04/13 01:21:00;;;;;;;1.98;1.88;;;5.70;99.90;;;;;;5182388;28;20098;-74
2022/04/13 01:23:40;;;;;;;0.60;0.60;;;5.70;99.90;;;;;;5198883;28;20041;-73
2022/04/13 01:26:12;;;;;;;0.82;0.82;;;5.70;99.90;;;;;;5208771;28;20357;-74
2022/04/13 01:28:47;;;;;;;0.88;0.88;;;5.70;99.90;;;;;;5188576;28;20028;-73
2022/04/13 01:31:19;;;;;;;0.80;0.80;;;5.60;99.90;;;;;;5223920;28;20063;-74
2022/04/13 01:33:56;;;;;;;1.67;1.67;;;5.40;99.90;;;;;;5206934;28;20338;-74
2022/04/13 01:36:28;;;;;;;0.60;0.60;;;5.40;99.90;;;;;;5207804;28;20338;-73
2022/04/13 01:38:59;;;;;;;2.55;2.30;;;5.40;99.90;;;;;;5189950;28;20063;-74
2022/04/13 01:41:31;;;;;;;0.63;0.63;;;5.50;99.90;;;;;;5213249;28;20211;-73
2022/04/13 01:44:05;;;;;;;1.38;1.33;;;5.50;99.90;;;;;;5164555;28;20139;-73
2022/04/13 01:46:39;;;;;;;4.28;1.60;;;5.50;99.90;;;;;;5189644;28;20033;-75
2022/04/13 01:49:13;;;;;;;1.30;1.30;;;5.50;99.90;;;;;;5204243;28;20040;-73
2022/04/13 01:51:49;;;;;;;0.98;0.98;;;5.60;99.90;;;;;;5220261;28;20027;-74
2022/04/13 01:54:23;;;;;;;0.63;0.63;;;5.60;99.90;;;;;;5169392;28;20051;-73
2022/04/13 01:56:55;;;;;;;1.88;1.80;;;5.60;99.90;;;;;;5218457;28;20021;-73
2022/04/13 01:59:30;;;;;;;2.20;2.10;;;5.60;99.90;;;;;;5202619;28;20286;-75
2022/04/13 02:02:05;;;;;;;;;;;5.70;99.90;;;;;;5206219;28;20040;-73
2022/04/13 02:04:42;;;;;;;1.00;1.00;;;5.60;99.90;;;;;;5214533;28;19917;-74
2022/04/13 02:07:14;;;;;;;1.10;1.10;;;5.60;99.90;;;;;;5205194;28;20470;-74
2022/04/13 02:09:48;;;;;;;0.68;0.68;;;5.50;99.90;;;;;;5208255;28;20183;-73
2022/04/13 02:12:19;;;;;;;1.10;1.10;;;5.60;99.90;;;;;;5209892;28;20343;-73
2022/04/13 02:14:50;;;;;;;0.80;0.80;;;5.50;99.90;;;;;;5211451;28;20021;-74
2022/04/13 02:17:27;;;;;;;1.00;1.00;;;5.50;99.90;;;;;;5222145;28;20029;-73
2022/04/13 02:20:01;;;;;;;0.90;0.90;;;5.50;99.90;;;;;;5224041;28;20025;-73
2022/04/13 02:22:35;;;;;;;1.30;1.27;;;5.50;99.90;;;;;;5206845;28;20335;-74
2022/04/13 02:25:11;;;;;;;1.55;1.45;;;5.50;99.90;;;;;;5223718;28;21106;-73
2022/04/13 02:27:43;;;;;;;0.75;0.75;;;5.50;99.90;;;;;;5224207;28;20039;-73
2022/04/13 02:30:16;;;;;;;3.17;1.73;;;5.50;99.90;;;;;;5223531;28;20540;-74
2022/04/13 02:32:47;;;;;;;0.90;0.90;;;5.60;99.90;;;;;;5223586;28;20306;-73
2022/04/13 02:35:19;;;;;;;0.98;0.98;;;5.60;99.90;;;;;;5223059;28;20067;-73
2022/04/13 02:37:54;;;;;;;0.70;0.70;;;5.50;99.90;;;;;;5223383;28;20043;-74
2022/04/13 02:40:25;;;;;;;;;;;5.40;99.90;;;;;;5204401;28;20249;-73
2022/04/13 02:42:59;;;;;;;1.75;1.65;;;5.40;99.90;;;;;;5202592;28;19913;-73
2022/04/13 02:45:32;;;;;;;1.50;1.50;;;5.50;99.90;;;;;;5202902;28;20033;-73
2022/04/13 02:48:04;;;;;;;1.00;1.00;;;5.60;99.90;;;;;;5185397;28;20021;-73
2022/04/13 02:50:39;;;;;;;0.80;0.80;;;5.60;99.90;;;;;;5203353;28;20022;-75
2022/04/13 02:53:15;;;;;;;;;;;5.80;99.90;;;;;;5225730;28;20017;-74
2022/04/13 02:55:51;;;;;;;0.73;0.73;;;6.00;99.90;;;;;;5206509;28;20202;-74
2022/04/13 02:58:23;;;;;;;0.93;0.93;;;6.20;99.90;;;;;;5224110;28;20039;-73
2022/04/13 03:00:57;;;;;;;1.20;1.20;;;6.20;99.90;;;;;;5194602;28;20018;-73
2022/04/13 03:03:35;;;;;;;3.25;2.10;;;6.20;99.90;;;;;;5203330;28;20351;-73
2022/04/13 03:06:08;;;;;;;1.17;1.17;;;6.30;99.90;;;;;;5174163;28;20264;-74
2022/04/13 03:08:42;;;;;;;1.52;1.48;;;6.30;99.90;;;;;;5202861;28;20242;-73
2022/04/13 03:11:19;;;;;;;1.95;1.55;;;6.30;99.90;;;;;;5201054;28;20049;-74
2022/04/13 03:13:54;;;;;;;1.27;1.27;;;6.30;99.90;;;;;;5185899;28;20047;-73
2022/04/13 03:16:27;;;;;;;;;;;6.30;99.90;;;;;;5203630;28;20041;-73
2022/04/13 03:19:04;;;;;;;1.00;1.00;;;6.30;99.90;;;;;;5202470;28;20312;-73
2022/04/13 03:21:38;;;;;;;0.90;0.90;;;6.30;99.90;;;;;;5202684;28;20029;-73
2022/04/13 03:24:12;;;;;;;1.05;1.05;;;6.10;99.90;;;;;;5202045;28;20045;-74
2022/04/13 03:26:47;;;;;;;;;;;6.00;99.90;;;;;;5221370;28;20545;-72
2022/04/13 03:29:22;;;;;;;1.20;1.20;;;6.10;99.90;;;;;;5223791;28;20229;-73
2022/04/13 03:31:56;;;;;;;1.38;1.33;;;6.10;99.90;;;;;;5223299;28;20020;-75
2022/04/13 03:34:30;;;;;;;1.15;1.15;;;6.00;99.90;;;;;;5222750;28;20033;-74
2022/04/13 03:37:05;;;;;;;2.15;2.05;;;5.80;99.90;;;;;;5218396;28;20029;-73
2022/04/13 03:39:38;;;;;;;;;;;5.70;99.90;;;;;;5202522;28;20476;-73
2022/04/13 03:42:10;;;;;;;0.88;0.88;;;5.50;99.90;;;;;;5184901;28;19905;-73
2022/04/13 03:44:44;;;;;;;1.60;1.52;;;5.30;99.90;;;;;;5206261;28;20135;-74
2022/04/13 03:47:20;;;;;;;0.95;0.95;;;5.20;99.90;;;;;;5222934;28;20043;-74
2022/04/13 03:49:54;;;;;;;0.93;0.93;;;5.00;99.90;;;;;;5222335;28;20025;-73
2022/04/13 03:52:25;;;;;;;1.05;1.05;;;4.90;99.90;;;;;;5218134;28;20025;-73
2022/04/13 03:55:04;;;;;;;0.90;0.90;;;4.80;99.90;;;;;;5202220;28;20056;-73
2022/04/13 03:57:36;;;;;;;1.05;1.05;;;4.80;99.90;;;;;;5165669;28;20103;-74
2022/04/13 04:00:09;;;;;;;0.80;0.80;;;4.70;99.90;;;;;;5187046;28;20215;-73
2022/04/13 04:02:41;;;;;;;0.70;0.70;;;4.70;99.90;;;;;;5201995;28;20042;-73
2022/04/13 04:05:15;;;;;;;0.80;0.80;;;4.80;99.90;;;;;;5201712;28;20039;-73
2022/04/13 04:07:46;;;;;;;0.90;0.90;;;4.80;99.90;;;;;;5189890;28;20262;-73
2022/04/13 04:10:18;;;;;;;0.70;0.70;;;4.80;99.90;;;;;;5204401;28;20214;-73
2022/04/13 04:12:51;;;;;;;1.00;1.00;;;4.80;99.90;;;;;;5184084;28;20355;-74
2022/04/13 04:15:27;;;;;;;1.33;1.30;;;4.70;99.90;;;;;;5191521;28;20047;-74
2022/04/13 04:18:07;;;;;;;0.82;0.82;;;4.90;99.90;;;;;;5222405;28;20033;-73
2022/04/13 04:20:39;;;;;;;0.68;0.68;;;4.90;99.90;;;;;;5190259;28;20025;-73
2022/04/13 04:23:10;;;;;;;0.60;0.60;;;5.00;99.90;;;;;;5204682;28;20029;-73
2022/04/13 04:25:42;;;;;;;1.52;1.52;;;4.90;99.90;;;;;;5188390;28;20036;-74
2022/04/13 04:28:22;;;;;;;0.70;0.70;;;4.90;99.90;;;;;;5222376;28;20031;-73
2022/04/13 04:30:55;;;;;;;0.90;0.90;;;5.00;99.90;;;;;;5222545;28;20036;-74
2022/04/13 04:33:33;;;;;;;0.90;0.90;;;5.00;99.90;;;;;;5203414;28;20566;-74
2022/04/13 04:36:10;;;;;;;0.60;0.60;;;5.10;99.90;;;;;;5219681;28;20028;-74
2022/04/13 04:38:44;;;;;;;2.00;1.90;;;5.10;99.90;;;;;;5214510;28;20031;-75
2022/04/13 04:41:18;;;;;;;0.75;0.75;;;5.20;99.90;;;;;;5235937;28;20028;-73
2022/04/13 04:43:49;;;;;;;3.05;2.85;;;5.30;99.90;;;;;;5243580;28;20372;-76
2022/04/13 04:46:22;;;;;;;1.63;1.55;;;5.50;99.90;;;;;;5226044;28;20037;-73
2022/04/13 04:48:56;;;;;;;1.73;1.40;;;5.60;99.90;;;;;;5220065;28;20536;-74
2022/04/13 04:51:28;;;;;;;2.30;2.10;;;5.80;99.90;;;;;;5223274;28;20032;-75
2022/04/13 04:54:05;;;;;;;1.10;1.10;;;5.90;99.90;;;;;;5205536;28;20051;-74
2022/04/13 04:56:44;;;;;;;1.40;1.40;;;6.10;99.90;;;;;;5235142;28;20020;-74
2022/04/13 04:59:16;;;;;;;1.65;1.55;;;6.20;99.90;;;;;;5226914;28;20028;-73
2022/04/13 05:01:49;;;;;;;1.30;1.30;;;6.40;99.90;;;;;;5215662;28;20033;-74
2022/04/13 05:04:20;;;;;;;1.88;1.77;;;6.60;99.90;;;;;;5224421;28;20019;-74
2022/04/13 05:06:52;;;;;;;0.90;0.90;;;6.80;99.90;;;;;;5218690;28;20033;-73
2022/04/13 05:09:25;;;;;;;1.02;1.02;;;7.00;99.90;;;;;;5222506;28;20261;-73
2022/04/13 05:12:02;;;;;;;1.02;1.02;;;7.10;99.90;;;;;;5221046;28;20049;-74
2022/04/13 05:14:38;;;;;;;2.97;2.75;;;7.30;99.90;;;;;;5188956;28;20345;-73
2022/04/13 05:17:10;;;;;;;4.47;1.25;;;7.40;99.90;;;;;;5221286;28;20139;-75
2022/04/13 05:19:42;;;;;;;0.85;0.85;;;7.60;99.90;;;;;;5187975;28;20037;-74
2022/04/13 05:22:20;;;;;;;0.70;0.70;;;7.80;99.90;;;;;;5222262;28;20025;-74
2022/04/13 05:24:51;;;;;;;1.10;1.10;;;8.20;99.90;;;;;;5222556;28;20039;-74
2022/04/13 05:27:22;;;;;;;1.05;1.05;;;8.50;99.90;;;;;;5223612;28;20314;-73
2022/04/13 05:29:55;;;;;;;1.30;1.30;;;8.80;99.90;;;;;;5243443;28;20028;-75
2022/04/13 05:32:31;;;;;;;0.98;0.98;;;9.10;99.90;;;;;;5216796;28;20221;-73
2022/04/13 05:35:06;;;;;;;2.20;1.58;;;9.30;99.90;;;;;;5221456;28;20031;-75
2022/04/13 05:37:37;;;;;;;1.92;1.83;;;9.60;99.90;;;;;;5187796;28;20068;-75
2022/04/13 05:40:12;;;;;;;0.95;0.95;;;9.80;99.90;;;;;;5221854;28;20039;-74
2022/04/13 05:42:54;;;;;;;1.15;1.15;;;10.10;99.90;;;;;;5204860;28;20032;-75
2022/04/13 05:45:26;;;;;;;1.52;1.33;;;10.30;99.90;;;;;;5222899;28;20505;-74
2022/04/13 05:47:57;;;;;;;1.30;1.30;;;10.40;99.90;;;;;;5222612;28;20232;-74
2022/04/13 05:50:34;;;;;;;1.05;1.05;;;10.70;99.90;;;;;;5188375;28;20036;-75
2022/04/13 05:53:11;;;;;;;1.63;1.58;;;11.00;99.90;;;;;;5201469;28;20033;-74
2022/04/13 05:55:47;;;;;;;0.93;0.93;;;11.30;99.90;;;;;;5235181;28;20037;-75
2022/04/13 05:58:19;;;;;;;0.90;0.90;;;11.40;99.90;;;;;;5188272;28;20041;-74
2022/04/13 06:00:50;;;;;;;1.55;1.30;;;11.50;99.90;;;;;;5222945;28;20029;-73
2022/04/13 06:03:30;;;;;;;1.17;1.17;;;11.90;99.90;;;;;;5204860;28;20048;-74
2022/04/13 06:06:04;;;;;;;1.30;1.30;;;12.20;99.90;;;;;;5194541;28;20045;-74
2022/04/13 06:08:37;;;;;;;0.90;0.90;;;12.20;99.90;;;;;;5205571;28;20023;-76
2022/04/13 06:11:09;;;;;;;0.98;0.98;;;12.20;99.90;;;;;;5205410;28;20210;-73
2022/04/13 06:13:41;;;;;;;1.63;1.52;;;12.10;99.90;;;;;;5207913;28;20036;-75
2022/04/13 06:16:14;;;;;;;1.23;1.15;;;12.20;99.90;;;;;;5241638;28;20040;-75
2022/04/13 06:18:50;;;;;;;0.80;0.80;;;11.90;99.90;;;;;;5246348;28;20037;-74
2022/04/13 06:21:21;;;;;;;0.90;0.90;;;11.80;99.90;;;;;;5229554;28;20024;-73
2022/04/13 06:23:53;;;;;;;0.90;0.90;;;12.00;99.90;;;;;;5229968;28;20024;-74
2022/04/13 06:26:29;;;;;;;0.95;0.95;;;12.00;99.90;;;;;;5246474;28;20040;-75
2022/04/13 06:29:01;;;;;;;1.80;1.70;;;12.20;99.90;;;;;;5229343;28;20409;-75
2022/04/13 06:31:37;;;;;;;2.10;2.00;;;12.20;99.90;;;;;;5224248;28;20064;-74
2022/04/13 06:34:11;;;;;;;0.68;0.68;;;12.30;99.90;;;;;;5245484;28;20024;-76
2022/04/13 06:36:48;;;;;;;0.98;0.98;;;12.60;99.90;;;;;;5246828;28;20021;-75
2022/04/13 06:39:25;;;;;;;0.82;0.82;;;12.70;99.90;;;;;;5246764;28;20024;-75
2022/04/13 06:41:58;;;;;;;1.00;1.00;;;12.60;99.90;;;;;;5246391;28;20032;-75
2022/04/13 06:44:31;;;;;;;1.30;1.30;;;12.90;99.90;;;;;;5238781;28;20027;-75
2022/04/13 06:47:05;;;;;;;1.02;1.02;;;13.10;99.90;;;;;;5208156;28;20023;-74
2022/04/13 06:49:39;;;;;;;2.40;2.30;;;13.10;99.90;;;;;;5208282;28;20260;-76
2022/04/13 06:52:24;;;;;;;1.20;1.20;;;13.20;99.90;;;;;;5207559;28;20048;-75
2022/04/13 06:55:02;;;;;;;1.42;1.33;;;13.30;99.90;;;;;;5225830;28;20452;-74
2022/04/13 06:57:38;;;;;;;1.30;1.30;;;13.20;99.90;;;;;;5239037;28;20021;-74
2022/04/13 07:00:12;;;;;;;0.98;0.98;;;12.90;99.90;;;;;;5226411;28;20028;-74
2022/04/13 07:02:46;;;;;;;0.63;0.63;;;13.20;99.90;;;;;;5210298;28;20028;-74
2022/04/13 07:05:22;;;;;;;2.17;2.05;;;13.30;99.90;;;;;;5223948;28;20050;-76
2022/04/13 07:08:02;;;;;;;1.30;1.30;;;13.40;99.90;;;;;;5231552;28;20033;-74
2022/04/13 07:10:34;;;;;;;0.80;0.80;;;13.30;99.90;;;;;;5209035;28;20480;-74
2022/04/13 07:13:07;;;;;;;1.70;1.65;;;13.70;99.90;;;;;;5224926;28;20036;-73
2022/04/13 07:15:41;;;;;;;1.25;1.25;;;14.00;99.90;;;;;;5245999;28;20372;-74
2022/04/13 07:18:12;;;;;;;0.73;0.73;;;14.40;99.90;;;;;;5246291;28;20051;-74
2022/04/13 07:20:44;;;;;;;0.80;0.80;;;14.10;99.90;;;;;;5245546;28;20219;-75
2022/04/13 07:23:20;;;;;;;1.15;1.15;;;14.40;99.90;;;;;;5229355;28;20021;-74
2022/04/13 07:25:52;;;;;;;0.73;0.73;;;14.50;99.90;;;;;;5239383;28;20021;-74
2022/04/13 07:28:26;;;;;;;1.00;1.00;;;14.40;99.90;;;;;;5223407;28;20031;-74
2022/04/13 07:30:59;;;;;;;1.87;1.77;;;14.60;99.90;;;;;;5206720;28;20032;-74
2022/04/13 07:33:34;;;;;;;1.35;1.35;;;14.80;99.90;;;;;;5224936;28;20634;-74
2022/04/13 07:36:06;;;;;;;1.20;1.20;;;14.90;99.90;;;;;;5224895;28;20047;-75
2022/04/13 07:38:38;;;;;;;1.17;1.17;;;15.00;99.90;;;;;;5224575;28;20017;-75
2022/04/13 07:41:12;;;;;;;0.70;0.70;;;15.00;99.90;;;;;;5225052;28;20029;-75
2022/04/13 07:43:49;;;;;;;0.77;0.77;;;15.00;99.90;;;;;;5237291;28;20020;-76
2022/04/13 07:46:29;;;;;;;0.95;0.95;;;15.20;99.90;;;;;;5245908;28;20076;-75
2022/04/13 07:49:01;;;;;;;0.90;0.90;;;15.40;99.90;;;;;;5195973;28;20032;-76
2022/04/13 07:51:44;;;;;;;2.45;2.22;;;15.40;99.90;;;;;;5246246;28;20035;-76
2022/04/13 07:54:23;;;;;;;2.28;2.17;;;15.80;99.90;;;;;;5245908;28;20342;-76
2022/04/13 07:56:55;;;;;;;1.30;1.25;;;16.30;99.90;;;;;;5224906;28;20376;-76
2022/04/13 07:59:27;;;;;;;1.63;1.52;;;16.00;99.90;;;;;;5225674;28;20064;-74
2022/04/13 08:01:59;;;;;;;1.50;1.50;;;16.10;99.90;;;;;;5261939;28;20036;-74
2022/04/13 08:04:33;;;;;;;1.13;1.13;;;16.10;99.90;;;;;;5219416;28;20046;-75
2022/04/13 08:07:07;;;;;;;1.20;1.20;;;16.00;99.90;;;;;;5236592;28;20021;-76
2022/04/13 08:09:39;;;;;;;0.60;0.60;;;16.20;99.90;;;;;;5223821;28;20041;-74
2022/04/13 08:12:17;;;;;;;0.95;0.95;;;16.40;99.90;;;;;;5224700;28;20306;-75
2022/04/13 08:14:50;;;;;;;0.93;0.93;;;16.50;99.90;;;;;;5205261;28;20237;-76
2022/04/13 08:17:26;;;;;;;0.82;0.82;;;16.70;99.90;;;;;;5207410;28;20021;-75
2022/04/13 08:20:06;;;;;;;1.23;1.23;;;16.70;99.90;;;;;;5180863;28;20344;-76
2022/04/13 08:22:38;;;;;;;1.40;1.40;;;16.50;99.90;;;;;;5224228;28;20245;-75
2022/04/13 08:25:17;;;;;;;1.58;1.52;;;16.40;99.90;;;;;;5207350;28;20364;-75
2022/04/13 08:27:50;;;;;;;0.93;0.93;;;16.40;99.90;;;;;;5200548;28;20119;-75
2022/04/13 08:30:26;;;;;;;1.90;1.80;;;16.20;99.90;;;;;;5217596;28;20029;-75
2022/04/13 08:32:57;;;;;;;1.48;1.45;;;16.30;99.90;;;;;;5212855;28;20021;-76
2022/04/13 08:35:29;;;;;;;1.42;1.42;;;17.00;99.90;;;;;;5169242;28;20021;-74
2022/04/13 08:38:00;;;;;;;1.33;1.33;;;16.70;99.90;;;;;;5168595;28;20041;-76
2022/04/13 08:40:39;;;;;;;1.10;1.10;;;16.60;99.90;;;;;;5202968;28;20022;-76
2022/04/13 08:43:14;;;;;;;0.80;0.80;;;16.70;99.90;;;;;;5185374;28;20319;-75
2022/04/13 08:45:59;;;;;;;1.55;1.45;;;17.00;99.90;;;;;;5184736;28;20049;-74
2022/04/13 08:48:33;;;;;;;0.98;0.98;;;17.30;99.90;;;;;;5185329;28;20026;-75
2022/04/13 08:51:09;;;;;;;1.10;1.10;;;17.40;99.90;;;;;;5206894;28;20021;-74
2022/04/13 08:53:45;;;;;;;0.77;0.77;;;16.90;99.90;;;;;;5216386;28;20029;-76
2022/04/13 08:56:20;;;;;;;1.20;1.20;;;16.80;99.90;;;;;;5184549;28;20026;-75
2022/04/13 08:59:07;;;;;;;0.32;0.32;;;17.10;99.90;;;;;;5184355;28;20044;-77
2022/04/13 09:02:07;;;;;;;2.08;1.33;;;17.60;99.90;;;;;;5211049;28;20043;-75
2022/04/13 09:04:45;;;;;;;1.00;1.00;;;17.70;99.90;;;;;;5196048;28;20059;-73
2022/04/13 09:07:20;;;;;;;1.15;1.15;;;18.10;99.90;;;;;;5212927;28;20033;-75
2022/04/13 09:09:57;;;;;;;1.25;0.95;;;18.30;99.90;;;;;;5201232;28;20030;-75
2022/04/13 09:12:33;;;;;;;1.20;1.20;;;18.10;99.90;;;;;;5184583;28;20195;-74
2022/04/13 09:15:06;;;;;;;1.20;1.20;;;18.10;99.90;;;;;;5205718;28;20031;-76
2022/04/13 09:17:38;;;;;;;1.58;1.48;;;18.10;99.90;;;;;;5224431;28;20397;-74
2022/04/13 09:20:11;;;;;;;0.80;0.80;;;18.40;99.90;;;;;;5221824;28;20025;-74
2022/04/13 09:22:54;;;;;;;1.30;1.30;;;18.00;99.90;;;;;;5222082;28;20020;-75
2022/04/13 09:25:31;;;;;;;1.25;1.25;;;18.00;99.90;;;;;;5221349;28;20032;-73
2022/04/13 09:28:09;;;;;;;0.80;0.80;;;18.00;99.90;;;;;;5223200;28;20031;-76
2022/04/13 09:30:42;;;;;;;1.05;1.05;;;18.60;99.90;;;;;;5222549;28;20124;-75
2022/04/13 09:33:17;;;;;;;0.63;0.63;;;17.90;99.90;;;;;;5204126;28;20037;-74
2022/04/13 09:35:48;;;;;;;0.77;0.77;;;18.40;99.90;;;;;;5221945;28;20040;-75
2022/04/13 09:38:22;;;;;;;1.15;1.10;;;18.60;99.90;;;;;;5221077;28;20029;-74
2022/04/13 09:41:10;;;;;;;1.23;1.23;;;18.50;99.90;;;;;;5237013;28;20029;-75
2022/04/13 09:43:54;;;;;;;1.80;1.70;;;18.80;99.90;;;;;;5204182;28;20019;-76
2022/04/13 09:46:31;;;;;;;0.70;0.70;;;19.00;99.90;;;;;;5221933;28;20047;-75
2022/04/13 09:49:17;;;;;;;33.42;1.98;;;19.30;99.90;;;;;;5223249;28;20041;-74
2022/04/13 09:51:51;;;;;;;2.00;1.85;;;19.20;99.90;;;;;;5212797;28;20251;-75
2022/04/13 09:54:29;;;;;;;0.98;0.98;;;19.20;99.90;;;;;;5225516;28;20330;-76
2022/04/13 09:57:00;;;;;;;1.17;1.08;;;19.20;99.90;;;;;;5191855;28;20035;-75
2022/04/13 09:59:32;;;;;;;0.63;0.63;;;19.40;99.90;;;;;;5211779;28;20243;-75
2022/04/13 10:02:06;;;;;;;1.33;1.23;;;19.80;99.90;;;;;;5208141;28;20548;-74
2022/04/13 10:04:39;;;;;;;1.65;1.55;;;19.80;99.90;;;;;;5185640;28;20052;-75
2022/04/13 10:07:18;;;;;;;0.93;0.93;;;19.90;99.90;;;;;;5220614;28;20257;-76
2022/04/13 10:09:52;;;;;;;1.05;1.05;;;20.50;99.90;;;;;;5228656;28;20020;-75
2022/04/13 10:12:27;;;;;;;;;;;20.40;99.90;;;;;;5227009;28;20063;-75
2022/04/13 10:15:13;;;;;;;1.15;1.15;;;20.20;99.90;;;;;;5229519;28;19916;-74
2022/04/13 10:17:49;;;;;;;0.73;0.73;;;19.90;99.90;;;;;;5226741;28;20033;-75
2022/04/13 10:20:23;;;;;;;0.95;0.95;;;19.80;99.90;;;;;;5232487;28;20037;-75
2022/04/13 10:23:08;;;;;;;2.10;2.00;;;19.80;99.90;;;;;;5190613;28;20059;-76
2022/04/13 10:25:46;;;;;;;1.65;1.55;;;20.70;99.90;;;;;;5227390;28;20310;-74
2022/04/13 10:28:26;;;;;;;2.65;2.45;;;21.00;99.90;;;;;;5227980;28;20016;-75
2022/04/13 10:31:10;;;;;;;1.02;1.02;;;21.20;99.90;;;;;;5210735;28;20024;-76
2022/04/13 10:33:52;;;;;;;1.05;1.00;;;21.10;99.90;;;;;;5186158;28;20033;-75
2022/04/13 10:36:26;;;;;;;3.90;1.30;;;21.60;99.90;;;;;;5203380;28;20024;-75
2022/04/13 10:38:59;;;;;;;0.90;0.90;;;21.90;99.90;;;;;;5204444;28;20029;-76
2022/04/13 10:41:31;;;;;;;1.10;1.00;;;21.60;99.90;;;;;;5204612;28;20029;-75
2022/04/13 10:44:07;;;;;;;0.98;0.98;;;22.10;99.90;;;;;;5203022;28;20009;-74
2022/04/13 10:46:41;;;;;;;1.60;1.42;;;21.50;99.90;;;;;;5202580;28;20151;-75
2022/04/13 10:49:21;;;;;;;2.30;1.77;;;21.30;99.90;;;;;;5214148;28;20028;-75
2022/04/13 10:51:59;;;;;;;0.90;0.90;;;22.60;99.90;;;;;;5205935;28;20020;-75
2022/04/13 10:54:37;;;;;;;0.90;0.90;;;20.90;99.90;;;;;;5206120;28;20426;-75
2022/04/13 10:57:14;;;;;;;0.75;0.75;;;21.50;99.90;;;;;;5218729;28;20032;-75
2022/04/13 10:59:58;;;;;;;0.68;0.68;;;22.60;99.90;;;;;;5205650;28;20036;-76
2022/04/13 11:02:54;;;;;;;0.77;0.77;;;21.30;99.90;;;;;;5223767;28;20021;-74
2022/04/13 11:05:26;;;;;;;0.70;0.70;;;21.40;99.90;;;;;;5203496;28;20041;-75
2022/04/13 11:08:23;;;;;;;0.82;0.75;;;22.40;99.90;;;;;;5205824;28;20340;-74
2022/04/13 11:10:55;;;;;;;1.90;1.80;;;22.10;99.90;;;;;;5223159;28;20032;-76
2022/04/13 11:13:32;;;;;;;1.23;1.23;;;23.00;99.90;;;;;;5205823;28;20040;-75
2022/04/13 11:16:27;;;;;;;0.77;0.77;;;22.70;99.90;;;;;;5206371;28;20349;-75
2022/04/13 11:19:04;;;;;;;3.10;1.75;;;23.30;99.90;;;;;;5221854;28;20025;-75
2022/04/13 11:21:54;;;;;;;0.90;0.80;;;23.50;99.90;;;;;;5223387;28;20043;-76
2022/04/13 11:24:37;;;;;;;3.97;1.27;;;23.70;99.90;;;;;;5222985;28;20016;-75
2022/04/13 11:27:11;;;;;;;1.00;1.00;;;22.90;99.90;;;;;;5243617;28;20046;-76
2022/04/13 11:29:59;;;;;;;0.60;0.60;;;23.40;99.90;;;;;;5243365;28;20016;-77
2022/04/13 11:32:39;;;;;;;0.77;0.73;;;24.20;99.90;;;;;;5242085;28;20112;-76
2022/04/13 11:35:27;;;;;;;0.47;0.47;;;25.10;99.90;;;;;;5225803;28;20016;-75
2022/04/13 11:38:09;;;;;;;1.05;1.00;;;24.50;99.90;;;;;;5243683;28;20029;-74
2022/04/13 11:41:05;;;;;;;0.88;0.88;;;24.40;99.90;;;;;;5242937;28;20038;-75
2022/04/13 11:43:41;;;;;;;3.20;1.15;;;23.50;99.90;;;;;;5225821;28;20024;-75
2022/04/13 11:46:48;;;;;;;0.95;0.95;;;23.80;99.90;;;;;;5229065;28;20035;-75
2022/04/13 11:49:40;;;;;;;1.75;1.45;;;24.90;99.90;;;;;;5157811;28;20042;-76
2022/04/13 11:53:06;;;;;;;0.75;0.75;;;24.20;99.90;;;;;;5142967;28;20044;-76
2022/04/13 11:55:40;;;;;;;1.38;1.27;;;24.50;99.90;;;;;;5168859;28;20298;-74
2022/04/13 11:58:20;;;;;;;1.00;1.00;;;25.40;99.90;;;;;;5178432;28;20056;-75
2022/04/13 12:00:55;;;;;;;0.70;0.70;;;24.80;99.90;;;;;;5161255;28;20037;-75
2022/04/13 12:03:41;;;;;;;0.40;0.40;;;23.20;99.90;;;;;;5178038;28;20046;-75
2022/04/13 12:06:25;;;;;;;0.85;0.85;;;23.40;99.90;;;;;;5185465;28;20043;-77
2022/04/13 12:09:02;;;;;;;2.45;1.17;;;23.60;99.90;;;;;;5166233;28;20036;-75
2022/04/13 12:11:46;;;;;;;0.63;0.63;;;23.70;99.90;;;;;;5197088;28;20037;-76
2022/04/13 12:14:38;;;;;;;;;;;24.20;99.90;;;;;;5198859;28;20029;-74
2022/04/13 12:17:16;;;;;;;0.30;0.30;;;24.90;99.90;;;;;;5161753;28;19909;-74
2022/04/13 12:19:51;;;;;;;0.50;0.50;;;23.70;99.90;;;;;;5183732;28;20040;-75
2022/04/13 12:22:25;;;;;;;0.50;0.50;;;23.70;99.90;;;;;;5202372;28;20067;-77
2022/04/13 12:25:09;;;;;;;0.73;0.73;;;24.00;99.90;;;;;;5240557;28;20032;-76
2022/04/13 12:28:04;;;;;;;0.70;0.70;;;24.50;99.90;;;;;;5202500;28;20362;-73
2022/04/13 12:30:40;;;;;;;0.70;0.70;;;24.20;99.90;;;;;;5224442;28;20610;-75
2022/04/13 12:33:23;;;;;;;1.92;1.83;;;24.90;99.90;;;;;;5223196;28;20238;-73
2022/04/13 12:36:04;;;;;;;0.60;0.60;;;25.50;99.90;;;;;;5224466;28;20035;-74
2022/04/13 12:38:43;;;;;;;1.15;1.15;;;26.40;99.90;;;;;;5223446;28;20032;-76
2022/04/13 12:41:24;;;;;;;0.30;0.30;;;26.30;99.90;;;;;;5223569;28;20024;-74
2022/04/13 12:44:01;;;;;;;0.93;0.93;;;27.20;99.90;;;;;;5224388;28;20043;-75
2022/04/13 12:46:36;;;;;;;0.60;0.60;;;26.40;99.90;;;;;;5220799;28;20025;-75
2022/04/13 12:49:19;;;;;;;0.43;0.43;;;27.10;99.50;;;;;;5204822;28;20051;-77
2022/04/13 12:51:58;;;;;;;1.05;0.68;;;27.20;99.80;;;;;;5222235;28;20028;-74
2022/04/13 12:54:41;;;;;;;2.60;1.52;;;26.90;99.80;;;;;;5204537;28;20031;-76
2022/04/13 12:57:13;;;;;;;0.75;0.75;;;26.10;99.90;;;;;;5222054;28;20211;-74
2022/04/13 12:59:44;;;;;;;4.63;0.88;;;24.40;99.90;;;;;;5220681;28;20029;-75
2022/04/13 13:02:20;;;;;;;29.92;1.50;;;24.30;99.90;;;;;;5220745;28;20031;-75
2022/04/13 13:04:52;;;;;;;0.82;0.82;;;25.30;99.90;;;;;;5219689;28;20273;-74
2022/04/13 13:07:30;;;;;;;1.33;1.23;;;26.40;99.90;;;;;;5230216;28;20350;-75
2022/04/13 13:10:04;;;;;;;0.70;0.70;;;25.10;99.90;;;;;;5186403;28;20067;-77
2022/04/13 13:12:40;;;;;;;2.10;1.85;;;25.40;99.90;;;;;;5218345;28;20045;-76
2022/04/13 13:15:17;;;;;;;0.57;0.57;;;25.50;99.90;;;;;;5201390;28;20029;-77
2022/04/13 13:17:48;;;;;;;2.17;2.08;;;25.80;99.70;;;;;;5202685;28;20093;-74
2022/04/13 13:20:20;;;;;;;0.75;0.75;;;26.00;99.30;;;;;;5219283;28;20027;-77
2022/04/13 13:22:52;;;;;;;1.13;0.95;;;26.30;99.40;;;;;;5212379;28;20032;-76
2022/04/13 13:25:29;;;;;;;1.25;1.15;;;26.70;98.60;;;;;;5229602;28;20032;-74
2022/04/13 13:28:02;;;;;;;1.30;0.90;;;26.50;98.80;;;;;;5230677;28;20047;-77
2022/04/13 13:30:50;;;;;;;1.20;1.20;;;24.50;99.50;;;;;;5248150;28;20024;-76
2022/04/13 13:33:22;;;;;;;1.55;1.00;;;25.50;99.90;;;;;;5247590;28;20033;-75
2022/04/13 13:36:00;;;;;;;0.82;0.82;;;25.60;99.00;;;;;;5247433;28;20050;-76
2022/04/13 13:38:36;;;;;;;2.83;1.38;;;24.70;99.80;;;;;;5247405;28;20070;-75